Time;durP1;ratioP1;P1;durP2;ratioP2;P2;SDS_P1;SDS_P2;PMS_P1;PMS_P2;Temp;Humidity;BMP_temperature;BMP_pressure;BME280_temperature;BME280_humidity;BME280_pressure;Samples;Min_cycle;Max_cycle;Signal;HPM_P1;HPM_P2
2023/01/04 00:01:26;;;;;;;4.30;3.63;;;;;;;-2.21;94.03;101374.13;5033253;28;20071;-65
2023/01/04 00:03:51;;;;;;;4.93;4.33;;;;;;;-2.24;95.07;101373.41;5033223;28;20079;-66
2023/01/04 00:06:18;;;;;;;5.77;5.17;;;;;;;-2.10;94.59;101386.69;5015278;28;20039;-65
2023/01/04 00:08:43;;;;;;;4.93;3.80;;;;;;;-2.13;94.18;101391.19;5033199;28;20130;-64
2023/01/04 00:11:14;;;;;;;4.83;3.77;;;;;;;-2.08;94.08;101399.69;5033175;28;20354;-67
2023/01/04 00:13:40;;;;;;;3.50;3.20;;;;;;;-2.08;94.04;101403.13;5033847;28;20083;-65
2023/01/04 00:16:11;;;;;;;4.00;3.60;;;;;;;-2.19;93.72;101395.78;5035139;28;20272;-67
2023/01/04 00:18:37;;;;;;;4.50;3.80;;;;;;;-2.23;94.08;101393.38;5000978;28;20298;-68
2023/01/04 00:21:11;;;;;;;3.67;3.13;;;;;;;-2.20;94.88;101396.69;5032689;28;20732;-65
2023/01/04 00:23:37;;;;;;;4.43;3.50;;;;;;;-2.15;94.70;101391.28;5032432;28;20465;-65
2023/01/04 00:26:18;;;;;;;4.72;3.42;;;;;;;-2.11;94.40;101389.38;5032040;28;20300;-67
2023/01/04 00:28:44;;;;;;;4.03;3.40;;;;;;;-2.16;92.94;101392.19;5032400;28;20025;-66
2023/01/04 00:31:11;;;;;;;3.73;3.20;;;;;;;-2.27;92.98;101392.66;5032385;28;20071;-66
2023/01/04 00:33:37;;;;;;;3.53;3.22;;;;;;;-2.24;93.76;101395.13;5032338;28;20034;-67
2023/01/04 00:36:08;;;;;;;4.20;3.00;;;;;;;-2.32;93.53;101373.72;5032173;28;20136;-65
2023/01/04 00:38:34;;;;;;;5.43;3.20;;;;;;;-2.14;93.53;101397.34;5032201;28;20029;-66
2023/01/04 00:41:00;;;;;;;4.50;3.50;;;;;;;-2.16;93.01;101383.50;5032531;28;20318;-68
2023/01/04 00:43:26;;;;;;;4.30;3.63;;;;;;;-2.01;92.54;101406.34;5032477;28;20256;-67
2023/01/04 00:45:52;;;;;;;3.40;3.07;;;;;;;-2.11;91.67;101407.66;5014345;28;20280;-64
2023/01/04 00:48:18;;;;;;;4.33;3.73;;;;;;;-2.10;92.64;101419.78;5032031;28;20032;-67
2023/01/04 00:50:44;;;;;;;3.50;3.17;;;;;;;-2.06;92.83;101426.56;5032003;28;20264;-66
2023/01/04 00:53:11;;;;;;;3.72;3.40;;;;;;;-2.16;93.35;101414.81;5031703;28;20033;-66
2023/01/04 00:55:36;;;;;;;4.70;3.07;;;;;;;-2.21;93.35;101415.88;5032150;28;20041;-66
2023/01/04 00:58:02;;;;;;;4.67;3.97;;;;;;;-2.08;93.55;101423.16;5032050;28;20264;-66
2023/01/04 01:00:28;;;;;;;4.70;3.63;;;;;;;-1.95;93.74;101424.34;5032111;28;20025;-65
2023/01/04 01:02:53;;;;;;;3.93;3.53;;;;;;;-1.94;92.86;101420.81;5031807;28;20136;-68
2023/01/04 01:05:19;;;;;;;4.57;3.70;;;;;;;-2.03;92.17;101415.97;5031766;28;20508;-67
2023/01/04 01:07:44;;;;;;;5.73;3.53;;;;;;;-2.08;92.82;101417.94;5032658;28;20112;-66
2023/01/04 01:10:10;;;;;;;4.27;3.30;;;;;;;-2.08;93.44;101394.47;5014580;28;20026;-65
2023/01/04 01:12:35;;;;;;;4.30;3.67;;;;;;;-1.89;92.53;101431.91;5031838;28;20501;-64
2023/01/04 01:15:02;;;;;;;5.10;3.17;;;;;;;-1.84;92.72;101436.94;5031483;28;20367;-65
2023/01/04 01:17:29;;;;;;;4.30;3.60;;;;;;;-1.93;91.94;101435.56;5031852;28;20048;-65
2023/01/04 01:19:55;;;;;;;3.57;2.90;;;;;;;-2.01;92.09;101430.69;5013944;28;20037;-65
2023/01/04 01:22:20;;;;;;;4.83;3.00;;;;;;;-2.03;92.71;101432.50;5031626;28;20204;-69
2023/01/04 01:24:46;;;;;;;3.93;3.43;;;;;;;-2.06;92.72;101416.97;5013986;28;20033;-68
2023/01/04 01:27:12;;;;;;;4.17;3.67;;;;;;;-1.94;92.38;101447.78;5014084;28;20124;-64
2023/01/04 01:29:37;;;;;;;4.83;4.33;;;;;;;-1.96;92.76;101453.97;5031614;28;20290;-65
2023/01/04 01:32:03;;;;;;;4.83;3.80;;;;;;;-2.02;92.41;101443.81;5031461;28;20079;-68
2023/01/04 01:34:28;;;;;;;6.80;3.93;;;;;;;-2.05;92.87;101444.75;5031499;28;20540;-64
2023/01/04 01:36:54;;;;;;;5.93;4.43;;;;;;;-2.17;93.51;101418.34;5031366;28;20040;-66
2023/01/04 01:39:19;;;;;;;4.70;3.80;;;;;;;-2.08;93.60;101447.50;5031720;28;20033;-65
2023/01/04 01:41:45;;;;;;;6.23;4.53;;;;;;;-2.12;93.92;101440.72;5031682;28;20033;-67
2023/01/04 01:44:41;;;;;;;5.20;4.27;;;;;;;-2.02;93.95;101446.41;5031535;28;20112;-66
2023/01/04 01:47:19;;;;;;;6.40;4.47;;;;;;;-2.03;93.72;101431.63;5031296;28;20041;-68
2023/01/04 01:49:48;;;;;;;5.15;3.78;;;;;;;-1.95;94.38;101433.03;5017049;28;20268;-65
2023/01/04 01:52:20;;;;;;;4.32;3.55;;;;;;;-1.94;93.40;101431.25;5035398;28;20384;-64
2023/01/04 01:54:51;;;;;;;4.93;4.20;;;;;;;-1.88;92.98;101439.69;5036209;28;20032;-67
2023/01/04 01:57:21;;;;;;;5.50;3.67;;;;;;;-1.83;93.37;101442.06;5035994;28;20267;-66
2023/01/04 01:59:49;;;;;;;5.23;3.90;;;;;;;-1.84;92.78;101431.69;5001952;28;20272;-67
2023/01/04 02:02:14;;;;;;;4.38;3.78;;;;;;;-1.79;92.48;101433.19;5036031;28;20260;-64
2023/01/04 02:04:45;;;;;;;4.87;4.33;;;;;;;-1.80;91.64;101430.66;5035069;28;20022;-68
2023/01/04 02:07:15;;;;;;;4.40;3.57;;;;;;;-1.79;92.09;101438.41;5035016;28;20028;-65
2023/01/04 02:09:41;;;;;;;6.03;4.77;;;;;;;-1.82;91.69;101430.72;5034760;28;20252;-67
2023/01/04 02:12:11;;;;;;;6.80;5.15;;;;;;;-1.85;92.09;101436.06;5034786;28;20312;-67
2023/01/04 02:14:39;;;;;;;8.53;3.87;;;;;;;-1.93;91.72;101427.75;5034741;28;20053;-66
2023/01/04 02:17:19;;;;;;;4.73;4.13;;;;;;;-1.91;92.27;101431.13;5034744;28;20368;-64
2023/01/04 02:19:45;;;;;;;4.63;3.93;;;;;;;-1.91;92.70;101423.31;5035125;28;20255;-67
2023/01/04 02:22:25;;;;;;;4.30;3.90;;;;;;;-1.89;92.06;101424.06;5034839;28;20260;-67
2023/01/04 02:25:20;;;;;;;5.50;4.17;;;;;;;-1.82;93.17;101425.50;5034821;28;20630;-66
2023/01/04 02:27:58;;;;;;;6.10;4.23;;;;;;;-1.78;92.64;101411.38;5034681;28;20272;-67
2023/01/04 02:30:29;;;;;;;4.97;4.00;;;;;;;-1.70;92.23;101411.06;5034467;28;20647;-67
2023/01/04 02:33:33;;;;;;;5.87;4.20;;;;;;;-1.87;92.94;101393.53;5034411;28;20339;-66
2023/01/04 02:36:20;;;;;;;4.37;3.80;;;;;;;-1.70;93.19;101419.75;5034383;28;20302;-67
2023/01/04 02:39:32;;;;;;;5.03;4.10;;;;;;;-1.68;92.68;101407.47;5034631;28;20272;-66
2023/01/04 02:44:51;;;;;;;4.97;4.10;;;;;;;-1.72;93.06;101399.84;4997762;28;20272;-69
2023/01/04 02:45:20;;;;;;;5.03;4.27;;;;;;;-1.80;93.96;101400.16;5017920;28;20874;-66
2023/01/04 02:50:38;;;;;;;3.57;3.27;;;;;;;-1.81;91.97;101419.34;5034365;28;20272;-66
2023/01/04 02:53:09;;;;;;;3.40;2.97;;;;;;;-1.83;92.72;101415.97;5034332;28;20359;-65
2023/01/04 02:55:47;;;;;;;5.67;3.87;;;;;;;-1.75;92.49;101420.84;5034183;28;20263;-65
2023/01/04 02:58:19;;;;;;;3.38;3.05;;;;;;;-1.75;91.98;101421.69;5034201;28;20263;-67
2023/01/04 03:06:59;;;;;;;5.65;3.53;;;;;;;-1.91;92.78;101399.81;5033987;28;20280;-67
2023/01/04 03:09:29;;;;;;;4.80;4.13;;;;;;;-1.94;92.95;101392.09;5034606;28;20160;-64
2023/01/04 03:14:59;;;;;;;5.43;3.50;;;;;;;-2.01;93.47;101401.13;5033529;28;20276;-64
2023/01/04 03:17:30;;;;;;;4.53;4.03;;;;;;;-1.98;93.23;101408.81;5033909;28;20268;-65
2023/01/04 03:19:58;;;;;;;4.87;3.77;;;;;;;-1.97;93.30;101415.75;5033379;28;20309;-68
2023/01/04 03:37:19;;;;;;;5.93;5.13;;;;;;;-2.00;93.75;101400.22;5033424;28;20351;-65
2023/01/04 03:48:55;;;;;;;7.57;3.85;;;;;;;-1.98;93.56;101398.38;5033465;28;20294;-64
2023/01/04 03:51:36;;;;;;;4.22;3.25;;;;;;;-2.03;93.72;101401.16;5033270;28;20025;-65
2023/01/04 03:54:13;;;;;;;5.47;3.60;;;;;;;-2.13;94.44;101393.81;5033048;28;20072;-66
2023/01/04 03:56:42;;;;;;;4.77;3.83;;;;;;;-2.12;93.98;101400.72;5015486;28;20260;-65
2023/01/04 03:59:10;;;;;;;7.40;4.73;;;;;;;-2.11;94.88;101398.06;5015584;28;20359;-66
2023/01/04 04:01:36;;;;;;;5.50;4.63;;;;;;;-2.06;94.38;101398.69;5033097;28;20350;-68
2023/01/04 04:09:30;;;;;;;3.60;3.10;;;;;;;-2.10;93.03;101404.13;5015038;28;20597;-67
2023/01/04 04:11:55;;;;;;;6.47;4.40;;;;;;;-2.23;93.96;101402.06;5032323;28;20271;-66
2023/01/04 04:14:22;;;;;;;4.53;3.77;;;;;;;-2.38;95.42;101400.06;5032585;28;20042;-64
2023/01/04 04:16:48;;;;;;;5.90;4.37;;;;;;;-2.45;95.72;101388.22;5032625;28;20037;-67
2023/01/04 04:19:13;;;;;;;5.40;3.67;;;;;;;-2.39;95.18;101387.94;5032432;28;20284;-67
2023/01/04 04:21:41;;;;;;;5.30;3.80;;;;;;;-2.28;95.78;101379.69;5032537;28;20074;-64
2023/01/04 04:24:15;;;;;;;6.70;4.20;;;;;;;-2.16;95.68;101388.72;5032555;28;20837;-64
2023/01/04 04:26:40;;;;;;;5.13;4.10;;;;;;;-2.09;94.91;101388.38;5031181;28;20306;-67
2023/01/04 04:29:06;;;;;;;4.33;3.83;;;;;;;-2.05;94.53;101386.50;5032400;28;20029;-65
2023/01/04 04:31:31;;;;;;;4.97;3.93;;;;;;;-2.00;94.37;101392.38;5032873;28;20025;-65
2023/01/04 04:33:57;;;;;;;7.33;5.23;;;;;;;-2.04;94.95;101375.13;5014549;28;20025;-65
2023/01/04 04:36:22;;;;;;;6.30;4.53;;;;;;;-1.95;94.95;101377.38;5032286;28;20116;-65
2023/01/04 04:38:48;;;;;;;6.53;4.40;;;;;;;-1.96;95.63;101375.66;5032324;28;20083;-65
2023/01/04 04:43:58;;;;;;;6.90;4.63;;;;;;;-1.89;95.43;101377.94;5032049;28;20025;-65
2023/01/04 04:46:23;;;;;;;6.73;4.90;;;;;;;-2.01;95.40;101361.97;5032110;28;20438;-66
2023/01/04 04:48:49;;;;;;;6.73;4.90;;;;;;;-2.11;95.97;101371.09;5032091;28;20087;-65
2023/01/04 04:51:15;;;;;;;10.60;5.87;;;;;;;-2.07;95.90;101380.50;5031972;28;20434;-66
2023/01/04 04:53:41;;;;;;;7.10;5.97;;;;;;;-2.12;96.96;101369.41;5032382;28;20339;-64
2023/01/04 04:56:06;;;;;;;8.37;5.50;;;;;;;-2.10;96.94;101373.66;5034550;28;20091;-64
2023/01/04 04:58:32;;;;;;;8.37;5.20;;;;;;;-2.17;97.01;101369.63;5033144;28;20519;-65
2023/01/04 05:00:57;;;;;;;7.90;5.00;;;;;;;-2.16;97.26;101365.25;5033004;28;20065;-65
2023/01/04 05:03:23;;;;;;;6.70;4.70;;;;;;;-2.12;97.58;101367.66;5031833;28;20041;-66
2023/01/04 05:05:49;;;;;;;7.10;4.77;;;;;;;-2.28;97.24;101338.78;5032109;28;20372;-67
2023/01/04 05:08:14;;;;;;;6.70;4.93;;;;;;;-2.05;96.97;101371.69;5031949;28;20033;-66
2023/01/04 05:10:40;;;;;;;6.70;4.97;;;;;;;-2.04;97.22;101375.13;5031973;28;20025;-64
2023/01/04 05:13:09;;;;;;;7.27;5.23;;;;;;;-2.06;96.55;101358.69;5014123;28;20034;-67
2023/01/04 05:15:49;;;;;;;8.13;5.07;;;;;;;-2.06;96.68;101358.69;5031937;28;20142;-63
2023/01/04 05:18:17;;;;;;;6.13;3.93;;;;;;;-2.07;96.52;101351.78;5032693;28;20274;-66
2023/01/04 05:20:43;;;;;;;9.20;5.25;;;;;;;-2.15;96.53;101343.44;5035023;28;20275;-67
2023/01/04 05:23:12;;;;;;;6.23;4.70;;;;;;;-2.13;96.96;101358.13;5015044;28;20026;-65
2023/01/04 05:25:38;;;;;;;6.78;4.30;;;;;;;-2.16;96.83;101354.81;5037228;28;20026;-66
2023/01/04 05:28:04;;;;;;;10.80;6.90;;;;;;;-2.23;97.09;101347.25;5035621;28;20033;-66
2023/01/04 05:33:14;;;;;;;9.60;5.23;;;;;;;-2.17;97.71;101340.91;5035826;28;20299;-66
2023/01/04 05:35:40;;;;;;;8.10;5.30;;;;;;;-2.15;97.83;101343.44;5019096;28;20295;-69
2023/01/04 05:38:05;;;;;;;9.40;5.80;;;;;;;-2.14;97.40;101343.38;5035525;28;20021;-66
2023/01/04 05:40:31;;;;;;;9.50;4.93;;;;;;;-2.17;97.50;101334.84;5035406;28;20029;-66
2023/01/04 05:42:56;;;;;;;9.43;5.23;;;;;;;-2.14;97.86;101334.72;5035593;28;20036;-66
2023/01/04 05:45:22;;;;;;;7.03;4.47;;;;;;;-2.13;97.84;101341.63;5035464;28;20026;-66
2023/01/04 05:47:52;;;;;;;8.67;5.87;;;;;;;-2.30;97.47;101317.13;5035396;28;20033;-65
2023/01/04 05:50:19;;;;;;;7.90;5.63;;;;;;;-2.28;97.39;101336.19;5035380;28;20083;-65
2023/01/04 05:52:45;;;;;;;9.13;5.73;;;;;;;-2.35;98.02;101332.13;5035200;28;20743;-65
2023/01/04 05:55:11;;;;;;;9.47;6.13;;;;;;;-2.30;98.67;101340.63;5035110;28;20454;-68
2023/01/04 05:57:38;;;;;;;9.63;6.13;;;;;;;-2.27;97.79;101330.03;5035287;28;20265;-64
2023/01/04 06:00:05;;;;;;;8.77;5.87;;;;;;;-2.23;97.82;101336.81;5035073;28;20654;-67
2023/01/04 06:02:31;;;;;;;8.80;4.67;;;;;;;-2.41;97.55;101311.50;5035185;28;20029;-66
2023/01/04 06:04:56;;;;;;;7.63;5.57;;;;;;;-2.34;97.92;101325.13;5034852;28;20284;-65
2023/01/04 06:07:23;;;;;;;10.63;7.33;;;;;;;-2.30;97.57;101329.34;5034451;28;20108;-68
2023/01/04 06:09:49;;;;;;;9.90;6.27;;;;;;;-2.20;97.40;101346.28;5034344;28;20421;-67
2023/01/04 06:12:14;;;;;;;8.50;6.20;;;;;;;-2.25;97.54;101328.22;5034833;28;20367;-68
2023/01/04 06:14:41;;;;;;;10.77;6.00;;;;;;;-2.22;97.84;101346.34;5034285;28;20077;-67
2023/01/04 06:17:07;;;;;;;7.77;5.40;;;;;;;-2.25;98.17;101343.88;5017052;28;20033;-67
2023/01/04 06:19:33;;;;;;;9.60;5.67;;;;;;;-2.32;98.18;101329.38;5034629;28;20264;-65
2023/01/04 06:21:59;;;;;;;9.90;5.90;;;;;;;-2.37;98.56;101310.47;5034217;28;20264;-66
2023/01/04 06:24:24;;;;;;;9.53;6.93;;;;;;;-2.26;98.30;101326.53;5017218;28;20283;-67
2023/01/04 06:26:50;;;;;;;9.97;6.57;;;;;;;-2.29;98.10;101331.88;5034584;28;20087;-65
2023/01/04 06:29:16;;;;;;;8.10;6.10;;;;;;;-2.35;97.90;101332.13;5034527;28;20373;-65
2023/01/04 06:31:42;;;;;;;10.93;5.60;;;;;;;-2.42;98.99;101337.66;5034645;28;20042;-66
2023/01/04 06:34:10;;;;;;;7.73;5.53;;;;;;;-2.46;99.25;101339.56;5016426;28;20029;-66
2023/01/04 06:36:36;;;;;;;9.50;6.40;;;;;;;-2.42;99.60;101337.66;5034357;28;20362;-65
2023/01/04 06:39:02;;;;;;;11.10;7.87;;;;;;;-2.38;99.64;101334.84;5034447;28;20132;-64
2023/01/04 06:41:27;;;;;;;8.43;5.73;;;;;;;-2.36;99.05;101335.63;5034585;28;20052;-71
2023/01/04 06:43:52;;;;;;;8.87;5.87;;;;;;;-2.43;98.54;101334.22;5035293;28;20068;-65
2023/01/04 06:46:18;;;;;;;11.37;6.17;;;;;;;-2.38;98.60;101332.25;5036090;28;20072;-66
2023/01/04 06:48:44;;;;;;;8.18;5.78;;;;;;;-2.39;99.48;101329.72;5035937;28;20048;-68
2023/01/04 06:51:10;;;;;;;8.77;5.73;;;;;;;-2.31;99.40;101338.06;5034463;28;20469;-66
2023/01/04 06:53:36;;;;;;;8.30;5.93;;;;;;;-2.30;98.52;101340.63;5037389;28;20476;-67
2023/01/04 06:56:01;;;;;;;7.83;5.73;;;;;;;-2.39;98.60;101327.94;5039288;28;20025;-67
2023/01/04 06:58:27;;;;;;;8.03;5.33;;;;;;;-2.34;98.29;101339.03;5039217;28;20021;-67
2023/01/04 07:00:53;;;;;;;7.83;5.77;;;;;;;-2.32;97.72;101336.34;5020613;28;20025;-67
2023/01/04 07:03:19;;;;;;;6.47;4.75;;;;;;;-2.39;97.50;101335.78;5034161;28;20033;-66
2023/01/04 07:05:45;;;;;;;7.20;5.07;;;;;;;-2.35;97.83;101341.69;5033606;28;20151;-66
2023/01/04 07:08:12;;;;;;;6.17;5.00;;;;;;;-2.37;97.55;101330.50;5033735;28;20120;-69
2023/01/04 07:10:38;;;;;;;11.73;6.00;;;;;;;-2.37;98.17;101344.38;5016154;28;20021;-67
2023/01/04 07:13:04;;;;;;;11.10;5.88;;;;;;;-2.42;97.89;101332.44;5033867;28;20052;-65
2023/01/04 07:15:30;;;;;;;7.75;5.10;;;;;;;-2.40;97.78;101338.44;5015731;28;20041;-68
2023/01/04 07:17:55;;;;;;;9.07;6.10;;;;;;;-2.38;98.37;101337.47;5015969;28;20604;-66
2023/01/04 07:20:21;;;;;;;9.07;6.27;;;;;;;-2.38;98.43;101339.22;5033667;28;20531;-65
2023/01/04 07:22:46;;;;;;;9.77;6.47;;;;;;;-2.36;98.15;101340.84;5033319;28;20384;-66
2023/01/04 07:25:12;;;;;;;8.70;6.20;;;;;;;-2.37;97.85;101333.94;5033687;28;20033;-66
2023/01/04 07:27:38;;;;;;;8.47;5.77;;;;;;;-2.42;97.98;101341.13;5033919;28;20497;-68
2023/01/04 07:30:04;;;;;;;8.57;5.80;;;;;;;-2.43;98.69;101339.44;5016349;28;20265;-66
2023/01/04 07:32:30;;;;;;;12.50;8.50;;;;;;;-2.40;98.33;101348.88;5033752;28;20144;-66
2023/01/04 07:34:55;;;;;;;9.80;6.87;;;;;;;-2.38;99.06;101341.84;5034875;28;20520;-66
2023/01/04 07:37:21;;;;;;;13.70;7.63;;;;;;;-2.33;99.02;101345.94;5033969;28;20083;-68
2023/01/04 07:39:47;;;;;;;9.73;5.63;;;;;;;-2.36;97.85;101345.22;5033999;28;20350;-65
2023/01/04 07:42:13;;;;;;;7.88;4.60;;;;;;;-2.56;97.22;101327.84;5033497;28;20060;-69
2023/01/04 07:44:39;;;;;;;6.23;4.60;;;;;;;-2.50;97.26;101343.22;5033394;28;20117;-66
2023/01/04 07:47:04;;;;;;;7.73;4.63;;;;;;;-2.54;97.79;101339.06;5032746;28;20045;-65
2023/01/04 07:49:30;;;;;;;8.13;4.53;;;;;;;-2.57;98.33;101341.78;4999180;28;20456;-68
2023/01/04 07:51:55;;;;;;;6.97;4.40;;;;;;;-2.54;98.27;101336.44;5033003;28;20433;-68
2023/01/04 07:54:22;;;;;;;10.67;5.27;;;;;;;-2.58;98.34;101343.56;5032818;28;20065;-67
2023/01/04 07:56:48;;;;;;;7.35;4.53;;;;;;;-2.52;97.72;101345.06;5033276;28;20029;-69
2023/01/04 07:59:15;;;;;;;7.47;5.37;;;;;;;-2.48;97.95;101346.63;5033438;28;20496;-68
2023/01/04 08:01:41;;;;;;;7.93;4.50;;;;;;;-2.44;97.70;101337.75;5033029;28;20036;-66
2023/01/04 08:04:08;;;;;;;7.03;4.27;;;;;;;-2.44;97.42;101337.75;5032696;28;20404;-67
2023/01/04 08:06:35;;;;;;;7.43;5.18;;;;;;;-2.38;97.39;101342.69;5032768;28;20469;-68
2023/01/04 08:09:02;;;;;;;7.65;4.68;;;;;;;-2.32;97.04;101337.19;5032822;28;20033;-65
2023/01/04 08:11:28;;;;;;;5.70;4.57;;;;;;;-2.34;97.10;101339.03;5032833;28;20108;-67
2023/01/04 08:13:54;;;;;;;10.80;5.27;;;;;;;-2.36;96.80;101329.56;5032393;28;20116;-65
2023/01/04 08:16:26;;;;;;;8.55;5.03;;;;;;;-2.30;97.11;101330.19;5032670;28;20124;-69
2023/01/04 08:18:57;;;;;;;7.30;5.70;;;;;;;-2.30;96.54;101348.44;5032582;28;20174;-65
2023/01/04 08:21:23;;;;;;;8.90;5.03;;;;;;;-2.35;97.58;101349.53;5032544;28;20027;-65
2023/01/04 08:23:49;;;;;;;6.35;4.50;;;;;;;-2.31;97.40;101358.94;5032403;28;20091;-66
2023/01/04 08:26:16;;;;;;;7.13;5.23;;;;;;;-2.31;97.47;101344.13;5014720;28;20071;-66
2023/01/04 08:28:42;;;;;;;8.23;5.13;;;;;;;-2.28;97.14;101343.16;5032490;28;20029;-66
2023/01/04 08:31:14;;;;;;;8.75;6.00;;;;;;;-2.24;96.93;101344.72;5032675;28;20116;-65
2023/01/04 08:33:41;;;;;;;9.25;5.05;;;;;;;-2.28;96.31;101344.00;5032550;28;20116;-67
2023/01/04 08:36:10;;;;;;;8.80;5.97;;;;;;;-2.27;96.44;101355.28;5014697;28;20037;-66
2023/01/04 08:38:36;;;;;;;7.32;5.15;;;;;;;-2.23;96.88;101360.31;5014559;28;20369;-67
2023/01/04 08:41:01;;;;;;;9.73;6.07;;;;;;;-2.19;97.22;101359.25;5032267;28;20022;-65
2023/01/04 08:43:27;;;;;;;10.37;6.27;;;;;;;-2.23;96.40;101352.47;5032247;28;20029;-69
2023/01/04 08:45:52;;;;;;;8.17;5.53;;;;;;;-2.38;96.39;101326.19;5032127;28;20491;-66
2023/01/04 08:48:18;;;;;;;7.03;4.80;;;;;;;-2.29;96.31;101346.69;5032603;28;20021;-69
2023/01/04 08:50:43;;;;;;;6.33;4.33;;;;;;;-2.36;94.96;101353.91;5032262;28;20465;-69
2023/01/04 08:53:09;;;;;;;5.17;4.03;;;;;;;-2.38;96.57;101347.91;5032195;28;20025;-66
2023/01/04 08:55:35;;;;;;;8.97;5.47;;;;;;;-2.43;95.16;101347.25;5014587;28;20033;-66
2023/01/04 08:58:02;;;;;;;5.17;3.87;;;;;;;-2.48;94.42;101336.19;5014703;28;20792;-66
2023/01/04 09:00:28;;;;;;;7.00;4.75;;;;;;;-2.52;95.23;101351.13;5032177;28;20124;-66
2023/01/04 09:02:53;;;;;;;6.17;4.10;;;;;;;-2.64;94.74;101335.13;5031970;28;20377;-66
2023/01/04 09:05:19;;;;;;;6.67;4.20;;;;;;;-2.57;95.30;101341.78;5031773;28;20036;-65
2023/01/04 09:07:44;;;;;;;7.63;5.40;;;;;;;-2.59;95.26;101338.41;5031956;28;20121;-67
2023/01/04 09:10:10;;;;;;;8.83;4.67;;;;;;;-2.66;95.21;101348.22;5031812;28;20064;-67
2023/01/04 09:12:36;;;;;;;6.37;4.70;;;;;;;-2.79;95.60;101348.81;5032244;28;20025;-67
2023/01/04 09:15:02;;;;;;;7.23;4.63;;;;;;;-2.87;95.47;101356.94;5032115;28;20073;-66
2023/01/04 09:17:31;;;;;;;7.15;4.80;;;;;;;-2.94;95.92;101358.09;5033714;28;20037;-64
2023/01/04 09:19:56;;;;;;;7.53;4.80;;;;;;;-2.96;94.79;101350.34;5017855;28;20033;-68
2023/01/04 09:22:22;;;;;;;5.33;4.00;;;;;;;-2.99;94.99;101355.66;5032292;28;20071;-67
2023/01/04 09:24:47;;;;;;;6.90;5.00;;;;;;;-2.92;95.36;101354.50;5032326;28;20021;-67
2023/01/04 09:27:13;;;;;;;5.07;3.80;;;;;;;-2.81;95.38;101352.31;5031864;28;20029;-67
2023/01/04 09:29:38;;;;;;;5.33;4.40;;;;;;;-2.83;94.71;101329.84;5031627;28;20068;-66
2023/01/04 09:32:04;;;;;;;6.30;4.53;;;;;;;-2.67;93.63;101350.91;5031706;28;20032;-65
2023/01/04 09:34:30;;;;;;;7.10;4.15;;;;;;;-2.73;92.98;101349.41;5014346;28;20030;-68
2023/01/04 09:36:55;;;;;;;6.47;4.60;;;;;;;-2.73;92.97;101345.94;5031705;28;20033;-66
2023/01/04 09:39:21;;;;;;;6.70;4.87;;;;;;;-2.72;92.95;101342.41;5031610;28;20377;-66
2023/01/04 09:41:51;;;;;;;6.77;4.53;;;;;;;-2.70;92.89;101335.38;5031313;28;20048;-66
2023/01/04 09:44:40;;;;;;;5.63;4.28;;;;;;;-2.71;92.55;101331.09;5031429;28;20109;-69
2023/01/04 09:47:42;;;;;;;7.13;3.88;;;;;;;-2.67;92.78;101345.69;5031712;28;20033;-65
2023/01/04 09:50:26;;;;;;;5.18;3.60;;;;;;;-2.66;92.40;101343.00;5032190;28;20029;-65
2023/01/04 09:53:05;;;;;;;6.50;4.65;;;;;;;-2.67;92.68;101332.63;5014060;28;20033;-69
2023/01/04 09:55:30;;;;;;;;;;;;;;;-2.55;92.18;101348.63;5032418;28;20026;-66
2023/01/04 09:58:01;;;;;;;5.83;3.93;;;;;;;-2.53;92.65;101344.19;5031676;28;19915;-66
2023/01/04 10:00:54;;;;;;;7.57;4.15;;;;;;;-2.41;92.09;101342.81;5031355;28;20033;-66
2023/01/04 10:03:24;;;;;;;6.22;4.10;;;;;;;-2.41;91.54;101348.03;5024902;28;20060;-67
2023/01/04 10:05:51;;;;;;;6.07;3.97;;;;;;;-2.48;91.69;101341.41;5031627;28;20026;-66
2023/01/04 10:08:18;;;;;;;4.40;3.90;;;;;;;-2.42;90.64;101340.28;5031460;28;20029;-67
2023/01/04 10:10:59;;;;;;;9.43;3.88;;;;;;;-2.53;91.23;101343.34;5016721;28;20267;-67
2023/01/04 10:13:46;;;;;;;5.82;3.90;;;;;;;-2.53;91.39;101343.34;5034898;28;20029;-67
2023/01/04 10:16:33;;;;;;;6.88;4.45;;;;;;;-2.48;91.83;101344.00;5035113;28;20041;-67
2023/01/04 10:19:24;;;;;;;7.00;4.03;;;;;;;-2.39;91.04;101340.16;5035146;28;20037;-68
2023/01/04 10:22:01;;;;;;;6.63;3.70;;;;;;;-2.33;90.73;101330.28;5017124;28;20068;-69
2023/01/04 10:24:38;;;;;;;5.57;3.97;;;;;;;-2.29;90.73;101344.06;5034936;28;20021;-65
2023/01/04 10:27:23;;;;;;;4.68;3.75;;;;;;;-2.26;90.78;101338.72;5034658;28;20064;-69
2023/01/04 10:30:18;;;;;;;5.53;3.78;;;;;;;-2.17;90.80;101333.09;5034773;28;20040;-68
2023/01/04 10:32:49;;;;;;;7.88;4.35;;;;;;;-2.15;90.42;101325.19;5034700;28;20029;-66
2023/01/04 10:35:22;;;;;;;6.13;4.40;;;;;;;-2.00;90.17;101333.19;5034277;28;20128;-66
2023/01/04 10:37:56;;;;;;;4.47;2.90;;;;;;;-2.02;90.44;101328.97;5034807;28;20271;-68
2023/01/04 10:40:23;;;;;;;5.47;3.63;;;;;;;-2.13;89.88;101326.81;5034424;28;20271;-70
2023/01/04 10:42:59;;;;;;;5.83;3.87;;;;;;;-2.10;89.70;101331.91;5016584;28;20764;-66
2023/01/04 10:45:32;;;;;;;5.75;4.18;;;;;;;-2.53;89.68;101291.19;5034111;28;20747;-68
2023/01/04 10:48:14;;;;;;;7.03;3.58;;;;;;;-2.54;91.37;101312.97;5034338;28;20120;-69
2023/01/04 10:50:40;;;;;;;8.37;4.43;;;;;;;-2.43;91.28;101333.38;5033917;28;20420;-65
2023/01/04 10:53:14;;;;;;;5.13;3.63;;;;;;;-2.39;92.26;101335.78;5033677;28;20318;-68
2023/01/04 10:55:52;;;;;;;3.65;3.15;;;;;;;-2.34;91.53;101333.81;5034302;28;20049;-67
2023/01/04 10:58:39;;;;;;;8.35;5.05;;;;;;;-2.47;91.40;101330.03;5034025;28;20461;-69
2023/01/04 11:01:14;;;;;;;5.78;4.28;;;;;;;-2.65;91.72;101302.97;5016329;28;20035;-67
2023/01/04 11:04:04;;;;;;;5.97;4.00;;;;;;;-2.72;92.65;101317.19;5034647;28;20025;-68
2023/01/04 11:06:38;;;;;;;9.18;5.05;;;;;;;-2.64;92.85;101330.75;5034323;28;20036;-70
2023/01/04 11:09:11;;;;;;;5.70;4.20;;;;;;;-2.69;92.56;101331.84;5035048;28;20033;-67
2023/01/04 11:11:41;;;;;;;6.72;3.88;;;;;;;-2.69;94.16;101329.25;5034066;28;20032;-67
2023/01/04 11:14:09;;;;;;;6.97;4.32;;;;;;;-2.61;93.88;101325.41;5033929;28;20081;-67
2023/01/04 11:16:38;;;;;;;6.13;4.00;;;;;;;-2.59;92.36;101334.03;5033773;28;20413;-68
2023/01/04 11:19:06;;;;;;;5.85;4.40;;;;;;;-2.74;92.41;101328.59;5033849;28;20481;-66
2023/01/04 11:21:42;;;;;;;6.68;4.43;;;;;;;-2.84;93.37;101334.22;5032878;28;20029;-67
2023/01/04 11:24:10;;;;;;;7.80;4.47;;;;;;;-2.84;93.66;101341.19;5033641;28;20083;-69
2023/01/04 11:26:40;;;;;;;9.35;4.85;;;;;;;-2.86;93.80;101336.03;5033539;28;20052;-67
2023/01/04 11:29:25;;;;;;;5.05;3.30;;;;;;;-2.90;93.27;101344.88;5033573;28;20480;-66
2023/01/04 11:31:55;;;;;;;4.80;3.65;;;;;;;-2.96;93.10;101345.13;5017654;28;20039;-69
2023/01/04 11:34:48;;;;;;;8.10;4.43;;;;;;;-3.03;93.33;101342.84;5033494;28;20029;-68
2023/01/04 11:37:41;;;;;;;7.00;3.80;;;;;;;-3.08;93.11;101345.63;5033391;28;20049;-67
2023/01/04 11:40:16;;;;;;;6.70;5.50;;;;;;;-3.16;94.50;101345.09;5030442;28;20045;-68
2023/01/04 11:42:42;;;;;;;4.35;3.42;;;;;;;-3.11;94.06;101350.97;5033311;28;20041;-67
2023/01/04 11:45:26;;;;;;;5.85;4.00;;;;;;;-3.14;94.59;101343.28;5033028;28;20033;-65
2023/01/04 11:47:56;;;;;;;7.88;5.35;;;;;;;-3.17;94.42;101335.59;5033384;28;20120;-66
2023/01/04 11:50:34;;;;;;;6.53;4.13;;;;;;;-3.13;93.50;101331.94;5033221;28;20032;-65
2023/01/04 11:53:00;;;;;;;4.60;3.80;;;;;;;-3.09;93.44;101325.69;5033120;28;20025;-68
2023/01/04 11:55:28;;;;;;;7.10;4.33;;;;;;;-3.04;92.68;101330.72;5033066;28;20476;-69
2023/01/04 11:58:06;;;;;;;4.78;4.05;;;;;;;-3.07;93.07;101334.28;5033151;28;20419;-71
2023/01/04 12:00:32;;;;;;;5.78;3.80;;;;;;;-3.13;92.10;101334.53;5033001;28;20029;-66
2023/01/04 12:03:16;;;;;;;4.87;3.40;;;;;;;-3.10;93.14;101331.81;5032982;28;20045;-67
2023/01/04 12:05:41;;;;;;;5.45;3.90;;;;;;;-3.15;91.32;101333.75;5032691;28;20029;-68
2023/01/04 12:08:30;;;;;;;7.87;3.80;;;;;;;-3.07;91.87;101336.06;5032873;28;20037;-69
2023/01/04 12:10:57;;;;;;;9.93;4.83;;;;;;;-3.08;90.93;101339.56;5033172;28;20037;-66
2023/01/04 12:13:23;;;;;;;6.38;3.83;;;;;;;-3.21;90.98;101331.38;5033192;28;20044;-68
2023/01/04 12:16:18;;;;;;;4.50;4.10;;;;;;;-3.18;91.47;101339.94;5032139;28;20050;-67
2023/01/04 12:18:45;;;;;;;9.48;3.83;;;;;;;-3.22;91.21;101319.25;5032909;28;20171;-66
2023/01/04 12:21:27;;;;;;;5.63;3.30;;;;;;;-3.25;90.42;101337.63;5033037;28;20121;-68
2023/01/04 12:23:54;;;;;;;6.57;3.83;;;;;;;-3.35;91.35;101338.91;5033176;28;20515;-71